11. August 2022

Uhrzeit Code Wetter Temp. Sichtweite Wolkendecke Wind METAR/SPECI
19:25
V
27 °C 10 km+ - 010° 010° 8 kt METAR EHGG 111725Z AUTO 01008KT 340V050 9999 NCD 27/14 Q1021 NOSIG
18:55
V
27 °C 10 km+ - 020° 020° 9 kt METAR EHGG 111655Z AUTO 02009KT 350V060 9999 NCD 27/13 Q1021 NOSIG
18:25
V
28 °C 10 km+ - 030° 030° 10 kt METAR EHGG 111625Z AUTO 03010KT 9999 NCD 28/13 Q1021 NOSIG
17:55
V
28 °C 10 km+ - 040° 040° 10 kt METAR EHGG 111555Z AUTO 04010KT 010V070 9999 NCD 28/12 Q1021 NOSIG
17:25
V
29 °C 10 km+ - 040° 040° 11 kt METAR EHGG 111525Z AUTO 04011KT 360V080 9999 NCD 29/12 Q1022 NOSIG
16:55
V
29 °C 10 km+ - 040° 040° 11 kt METAR EHGG 111455Z AUTO 04011KT 010V080 9999 NCD 29/11 Q1022 NOSIG
16:25
V
30 °C 10 km+ - 060° 060° 10 kt METAR EHGG 111425Z AUTO 06010KT 020V090 9999 NCD 30/11 Q1022 NOSIG
15:55
V
29 °C 10 km+ - 040° 040° 10 kt METAR EHGG 111355Z AUTO 04010KT 010V100 9999 NCD 29/10 Q1022 NOSIG
14:55
V
29 °C 10 km+ - Var Var 5 kt METAR EHGG 111255Z AUTO VRB05KT 9999 NCD 29/10 Q1022 NOSIG
14:25
V
29 °C 10 km+ - 050° 050° 6 kt METAR EHGG 111225Z AUTO 05006KT 320V110 9999 NCD 29/09 Q1023 NOSIG
13:55
V
29 °C 10 km+ - 070° 070° 8 kt METAR EHGG 111155Z AUTO 07008KT 020V140 9999 NCD 29/09 Q1023 NOSIG
13:25
V
29 °C 10 km+ - 070° 070° 6 kt METAR EHGG 111125Z AUTO 07006KT 010V140 9999 NCD 29/11 Q1023 NOSIG
12:55
V
28 °C 10 km+ - 070° 070° 5 kt METAR EHGG 111055Z AUTO 07005KT 9999 NCD 28/10 Q1023 NOSIG
12:25
V
28 °C 10 km+ - 070° 070° 7 kt METAR EHGG 111025Z AUTO 07007KT 010V130 9999 NCD 28/11 Q1023 NOSIG
11:55
V
27 °C 10 km+ - 090° 090° 5 kt METAR EHGG 110955Z AUTO 09005KT 040V140 9999 NCD 27/11 Q1024 NOSIG
11:25
V
26 °C 10 km+ - 050° 050° 5 kt METAR EHGG 110925Z AUTO 05005KT 340V110 9999 NCD 26/13 Q1024 NOSIG
10:55
V
25 °C 10 km+ - Var Var 4 kt METAR EHGG 110855Z AUTO VRB04KT 9999 NCD 25/15 Q1024 NOSIG
10:25
V
23 °C 10 km+ - 070° 070° 4 kt METAR EHGG 110825Z AUTO 07004KT 010V120 9999 NCD 23/15 Q1024 NOSIG
09:55
V
22 °C 10 km+ - 090° 090° 4 kt METAR EHGG 110755Z AUTO 09004KT 050V130 9999 NCD 22/16 Q1024 NOSIG
09:25
V
21 °C 10 km+ - 090° 090° 3 kt METAR EHGG 110725Z AUTO 09003KT 050V140 9999 NCD 21/15 Q1024 NOSIG
08:55
V
20 °C 10 km+ - 100° 100° 3 kt METAR EHGG 110655Z AUTO 10003KT 050V150 9999 NCD 20/16 Q1024 NOSIG
08:25
V
18 °C 10 km+ - 090° 090° 4 kt METAR EHGG 110625Z AUTO 09004KT 060V120 9999 NCD 18/16 Q1024 BECMG 9999 NSW
07:55
V
17 °C 10 km+ - 080° 080° 5 kt METAR EHGG 110555Z AUTO 08005KT 040V130 9999 NCD 17/16 Q1024 BECMG 9999 NSW
07:25
I
16 °C 4,2 km - 070° 070° 3 kt METAR EHGG 110525Z AUTO 07003KT 350V090 4200 BR NCD 16/16 Q1024 BECMG 9999 NSW
06:55
I
15 °C 2,4 km - 060° 060° 5 kt METAR EHGG 110455Z AUTO 06005KT 2400 BR NCD 15/14 Q1024 BECMG 9999 NSW
06:25
L
13 °C 250 m - 060° 060° 4 kt METAR EHGG 110425Z AUTO 06004KT 0250 R05/1300D FG NCD 13/13 Q1024
05:55
L
13 °C 500 m - 060° 060° 4 kt METAR EHGG 110355Z AUTO 06004KT 0500 R05/1700N FG NCD 13/13 Q1024
05:25
I
14 °C 4,2 km - 070° 070° 4 kt METAR EHGG 110325Z AUTO 07004KT 4200 BR NCD 14/13 Q1024
04:55
L
14 °C 1,3 km - 060° 060° 4 kt METAR EHGG 110255Z AUTO 06004KT 1300 R05/P2000N BR NCD 14/14 Q1024
04:25
M
14 °C 6 km - 070° 070° 4 kt METAR EHGG 110225Z AUTO 07004KT 6000 NCD 14/14 Q1024
03:55
V
14 °C 8 km - 070° 070° 4 kt METAR EHGG 110155Z AUTO 07004KT 8000 NCD 14/14 Q1024
03:25
V
15 °C 10 km+ - 070° 070° 3 kt METAR EHGG 110125Z AUTO 07003KT 9999 NCD 15/14 Q1024
02:55
V
15 °C 9 km - 060° 060° 4 kt METAR EHGG 110055Z AUTO 06004KT 9000 NCD 15/14 Q1024
02:25
V
14 °C 10 km+ - 050° 050° 3 kt METAR EHGG 110025Z AUTO 05003KT 9999 NCD 14/14 Q1024
01:55
V
14 °C 10 km+ - 060° 060° 4 kt METAR EHGG 102355Z AUTO 06004KT 9999 NCD 14/14 Q1024
01:25
V
15 °C 10 km+ - 050° 050° 5 kt METAR EHGG 102325Z AUTO 05005KT 9999 NCD 15/14 Q1025
00:55
V
15 °C 10 km+ - 050° 050° 5 kt METAR EHGG 102255Z AUTO 05005KT 9999 NCD 15/14 Q1025
00:25
V
16 °C 10 km+ - 060° 060° 5 kt METAR EHGG 102225Z AUTO 06005KT 9999 NCD 16/14 Q1025

10. August 2022

Uhrzeit Code Wetter Temp. Sichtweite Wolkendecke Wind METAR/SPECI
23:55
V
17 °C 10 km+ - 040° 040° 6 kt METAR EHGG 102155Z AUTO 04006KT 9999 NCD 17/15 Q1025
23:25
V
18 °C 10 km+ - 040° 040° 6 kt METAR EHGG 102125Z AUTO 04006KT 9999 NCD 18/15 Q1025
22:55
V
18 °C 10 km+ - 040° 040° 6 kt METAR EHGG 102055Z AUTO 04006KT 9999 NCD 18/15 Q1025
22:25
V
19 °C 10 km+ - 040° 040° 6 kt METAR EHGG 102025Z AUTO 04006KT 9999 NCD 19/16 Q1025 NOSIG
21:55
V
20 °C 10 km+ - 030° 030° 7 kt METAR EHGG 101955Z AUTO 03007KT 9999 NCD 20/16 Q1025 NOSIG
21:25
V
21 °C 10 km+ - 030° 030° 7 kt METAR EHGG 101925Z AUTO 03007KT 360V060 9999 NCD 21/16 Q1025 NOSIG
20:55
V
22 °C 10 km+ - 030° 030° 7 kt METAR EHGG 101855Z AUTO 03007KT 360V060 9999 NCD 22/16 Q1024 NOSIG
20:25
V
23 °C 10 km+ - 030° 030° 8 kt METAR EHGG 101825Z AUTO 03008KT 360V070 9999 NCD 23/16 Q1024 NOSIG
19:55
V
24 °C 10 km+ - 030° 030° 7 kt METAR EHGG 101755Z AUTO 03007KT 340V050 9999 NCD 24/16 Q1024 NOSIG
19:25
V
24 °C 10 km+ - 030° 030° 9 kt METAR EHGG 101725Z AUTO 03009KT 340V060 9999 NCD 24/15 Q1024 NOSIG
18:55
V
25 °C 10 km+ - 030° 030° 9 kt METAR EHGG 101655Z AUTO 03009KT 340V070 9999 NCD 25/15 Q1025 NOSIG
18:25
V
25 °C 10 km+ - 030° 030° 10 kt METAR EHGG 101625Z AUTO 03010KT 350V060 9999 NCD 25/15 Q1025 NOSIG
17:55
V
26 °C 10 km+ - 020° 020° 9 kt METAR EHGG 101555Z AUTO 02009KT 340V060 9999 NCD 26/15 Q1025 NOSIG
17:25
V
27 °C 10 km+ - 040° 040° 8 kt METAR EHGG 101525Z AUTO 04008KT 340V080 9999 NCD 27/14 Q1025 NOSIG
16:55
V
27 °C 10 km+ - 030° 030° 8 kt METAR EHGG 101455Z AUTO 03008KT 340V070 9999 NCD 27/14 Q1025 NOSIG
16:25
V
27 °C 10 km+ - 050° 050° 7 kt METAR EHGG 101425Z AUTO 05007KT 010V110 9999 NCD 27/13 Q1025 NOSIG
15:55
V
27 °C 10 km+ - 060° 060° 8 kt METAR EHGG 101355Z AUTO 06008KT 360V110 9999 NCD 27/13 Q1026 NOSIG
15:25
V
27 °C 10 km+ - 070° 070° 7 kt METAR EHGG 101325Z AUTO 07007KT 010V130 9999 NCD 27/14 Q1026 NOSIG
14:55
V
27 °C 10 km+ - Var Var 6 kt METAR EHGG 101255Z AUTO VRB06KT 9999 NCD 27/13 Q1026 NOSIG
14:25
V
26 °C 10 km+ - 050° 050° 7 kt METAR EHGG 101225Z AUTO 05007KT 340V130 9999 NCD 26/13 Q1026 NOSIG
13:55
V
26 °C 10 km+ - 080° 080° 7 kt METAR EHGG 101155Z AUTO 08007KT 010V160 9999 NCD 26/13 Q1027 NOSIG
13:25
V
26 °C 10 km+ - 060° 060° 7 kt METAR EHGG 101125Z AUTO 06007KT 020V140 9999 NCD 26/13 Q1027 NOSIG
12:55
V
25 °C 10 km+ - 080° 080° 5 kt METAR EHGG 101055Z AUTO 08005KT 030V120 9999 NCD 25/13 Q1027 NOSIG
12:25
V
25 °C 10 km+ - 100° 100° 6 kt METAR EHGG 101025Z AUTO 10006KT 040V180 9999 NCD 25/14 Q1027 NOSIG
11:55
V
24 °C 10 km+ - 050° 050° 6 kt METAR EHGG 100955Z AUTO 05006KT 340V120 9999 NCD 24/15 Q1028 NOSIG
11:25
V
23 °C 10 km+ - 060° 060° 6 kt METAR EHGG 100925Z AUTO 06006KT 020V110 9999 NCD 23/14 Q1028 NOSIG
10:55
V
22 °C 10 km+ - 070° 070° 7 kt METAR EHGG 100855Z AUTO 07007KT 040V110 9999 NCD 22/14 Q1028 NOSIG
10:25
V
22 °C 10 km+ - 060° 060° 6 kt METAR EHGG 100825Z AUTO 06006KT 010V120 9999 NCD 22/16 Q1028 NOSIG
09:55
V
21 °C 10 km+ - 060° 060° 7 kt METAR EHGG 100755Z AUTO 06007KT 030V090 9999 NSC 21/16 Q1028 NOSIG
09:25
V
20 °C 10 km+ - 060° 060° 7 kt METAR EHGG 100725Z AUTO 06007KT 030V110 9999 NSC 20/16 Q1028 NOSIG
08:55
V
19 °C 10 km+ - 060° 060° 8 kt METAR EHGG 100655Z AUTO 06008KT 9999 NSC 19/16 Q1028 NOSIG
08:25
V
17 °C 10 km+ - 060° 060° 7 kt METAR EHGG 100625Z AUTO 06007KT 9999 NSC 17/16 Q1028 NOSIG
07:55
V
16 °C 9 km - 050° 050° 6 kt METAR EHGG 100555Z AUTO 05006KT 020V080 9000 NSC 16/16 Q1028 BECMG CAVOK
07:25
M
16 °C 7 km - 040° 040° 4 kt METAR EHGG 100525Z AUTO 04004KT 010V070 7000 NSC 16/15 Q1028 BECMG CAVOK
06:55
M
15 °C 5 km - 050° 050° 5 kt METAR EHGG 100455Z AUTO 05005KT 5000 NSC 15/14 Q1028 BECMG CAVOK
06:25
I
13 °C 4,2 km - 040° 040° 4 kt METAR EHGG 100425Z AUTO 04004KT 4200 R05/1100U BR NSC 13/13 Q1028
05:55
I
13 °C 4,8 km - 040° 040° 3 kt METAR EHGG 100355Z AUTO 04003KT 4800 R05/0500D BR NSC 13/13 Q1028
05:25
M
13 °C 5 km - 040° 040° 4 kt METAR EHGG 100325Z AUTO 04004KT 5000 R05/1300U NCD 13/13 Q1028
04:55
M
13 °C 5 km - 050° 050° 4 kt METAR EHGG 100255Z AUTO 05004KT 5000 NCD 13/13 Q1028
04:25
I
13 °C 4,5 km - 050° 050° 4 kt METAR EHGG 100225Z AUTO 05004KT 4500 BR NSC 13/13 Q1028
03:55
M
13 °C 5 km - 040° 040° 4 kt METAR EHGG 100155Z AUTO 04004KT 5000 NSC 13/12 Q1028
03:25
I
13 °C 3,8 km - 040° 040° 3 kt METAR EHGG 100125Z AUTO 04003KT 3800 BR NSC 13/13 Q1028
02:55
V
12 °C 10 km+ - 060° 060° 4 kt METAR EHGG 100055Z AUTO 06004KT 9999 NSC 12/12 Q1028
02:25
M
13 °C 5 km - 040° 040° 3 kt METAR EHGG 100025Z AUTO 04003KT 5000 BR NSC 13/12 Q1028
01:25
V
13 °C 10 km+ - 040° 040° 3 kt METAR EHGG 092325Z AUTO 04003KT 9999 NCD 13/12 Q1029
00:55
V
15 °C 10 km+ - 020° 020° 4 kt METAR EHGG 092255Z AUTO 02004KT 350V050 9999 NSC 15/13 Q1029
00:25
V
14 °C 10 km+ - 040° 040° 4 kt METAR EHGG 092225Z AUTO 04004KT 9999 NSC 14/12 Q1029

9. August 2022

Uhrzeit Code Wetter Temp. Sichtweite Wolkendecke Wind METAR/SPECI
23:55
V
15 °C 10 km+ - 040° 040° 4 kt METAR EHGG 092155Z AUTO 04004KT 9999 NSC 15/12 Q1029
23:25
V
15 °C 10 km+ - 040° 040° 5 kt METAR EHGG 092125Z AUTO 04005KT 9999 NSC 15/12 Q1029
22:55
V
16 °C 10 km+ - 030° 030° 6 kt METAR EHGG 092055Z AUTO 03006KT 360V060 9999 NSC 16/13 Q1029 NOSIG
22:25
V
17 °C 10 km+ - 020° 020° 7 kt METAR EHGG 092025Z AUTO 02007KT 9999 NSC 17/13 Q1029 NOSIG
21:55
V
17 °C 10 km+ - 010° 010° 7 kt METAR EHGG 091955Z AUTO 01007KT 340V040 9999 NSC 17/13 Q1029 NOSIG
21:25
V
18 °C 10 km+ - 020° 020° 6 kt METAR EHGG 091925Z AUTO 02006KT 350V050 9999 NCD 18/12 Q1028 NOSIG
20:55
V
18 °C 10 km+ - 040° 040° 6 kt METAR EHGG 091855Z AUTO 04006KT 010V070 9999 NCD 18/12 Q1028 NOSIG
20:25
V
20 °C 10 km+ - 030° 030° 9 kt METAR EHGG 091825Z AUTO 03009KT 9999 NCD 20/11 Q1028 NOSIG
19:55
V
20 °C 10 km+ - 030° 030° 10 kt METAR EHGG 091755Z AUTO 03010KT 9999 NSC 20/11 Q1028 NOSIG
19:25
V
21 °C 10 km+ - 020° 020° 9 kt METAR EHGG 091725Z AUTO 02009KT 330V060 9999 NCD 21/11 Q1028 NOSIG
18:55
V
22 °C 10 km+ - 010° 010° 10 kt METAR EHGG 091655Z AUTO 01010KT 340V050 9999 NCD 22/11 Q1028 NOSIG
18:25
V
22 °C 10 km+ - 030° 030° 11 kt METAR EHGG 091625Z AUTO 03011KT 350V060 9999 NSC 22/12 Q1028 NOSIG
17:55
V
23 °C 10 km+ - 030° 030° 10 kt METAR EHGG 091555Z AUTO 03010KT 350V070 9999 NSC 23/12 Q1028 NOSIG
17:25
V
23 °C 10 km+ - 010° 010° 10 kt METAR EHGG 091525Z AUTO 01010KT 330V050 9999 NCD 23/13 Q1028 NOSIG
16:55
V
23 °C 10 km+ - 050° 050° 9 kt METAR EHGG 091455Z AUTO 05009KT 350V090 9999 NSC 23/13 Q1028 NOSIG
Ältere Daten

Wir und Dritte verfolgen dein Internetverhalten auf unserer Website mit Cookies. Wenn du fortfährst, gehen wir davon aus, dass du mit unserer Cookie-Richtlinie einverstanden bist. Mehr erfahren